Time;durP1;ratioP1;P1;durP2;ratioP2;P2;SDS_P1;SDS_P2;PMS_P1;PMS_P2;Temp;Humidity;BMP_temperature;BMP_pressure;BME280_temperature;BME280_humidity;BME280_pressure;Samples;Min_cycle;Max_cycle;Signal;HPM_P1;HPM_P2
2022/04/06 00:04:09;;;;;;;43.03;25.87;;;6.50;99.90;;;;;;10338371;28;20784;-80
2022/04/06 00:09:10;;;;;;;48.60;28.70;;;6.50;99.90;;;;;;10357709;28;20034;-81
2022/04/06 00:14:10;;;;;;;48.57;28.83;;;6.60;99.90;;;;;;10364725;28;20032;-80
2022/04/06 00:19:11;;;;;;;49.93;29.13;;;6.60;99.90;;;;;;10367066;28;20046;-81
2022/04/06 00:24:12;;;;;;;46.43;27.47;;;6.60;99.90;;;;;;10363216;28;20088;-81
2022/04/06 00:29:13;;;;;;;45.47;27.47;;;6.50;99.90;;;;;;10352660;28;20360;-81
2022/04/06 00:34:13;;;;;;;45.60;27.97;;;6.50;99.90;;;;;;10393161;28;20057;-80
2022/04/06 00:39:14;;;;;;;39.10;24.77;;;6.40;99.90;;;;;;10408709;28;20034;-83
2022/04/06 00:44:17;;;;;;;33.20;21.47;;;6.50;99.90;;;;;;10393284;28;20052;-84
2022/04/06 00:49:18;;;;;;;35.83;23.10;;;6.50;99.90;;;;;;10401591;28;20033;-83
2022/04/06 00:54:21;;;;;;;34.33;21.90;;;6.50;99.90;;;;;;10407168;28;20045;-84
2022/04/06 00:59:22;;;;;;;39.27;24.20;;;6.50;99.90;;;;;;10407127;28;20041;-81
2022/04/06 01:04:23;;;;;;;42.73;27.77;;;6.50;99.90;;;;;;10399475;28;20514;-81
2022/04/06 01:09:25;;;;;;;38.73;25.70;;;6.60;99.90;;;;;;10407839;28;20075;-82
2022/04/06 01:14:26;;;;;;;39.30;25.30;;;6.60;99.90;;;;;;10392594;28;20048;-81
2022/04/06 01:19:40;;;;;;;35.77;23.33;;;6.60;99.90;;;;;;10404091;28;20037;-80
2022/04/06 01:24:41;;;;;;;40.43;26.33;;;6.60;99.90;;;;;;10400804;28;20087;-80
2022/04/06 01:29:42;;;;;;;37.07;24.60;;;6.80;99.90;;;;;;10407196;28;20389;-80
2022/04/06 01:34:44;;;;;;;31.87;20.20;;;6.80;99.90;;;;;;10398171;28;20060;-80
2022/04/06 01:39:47;;;;;;;30.00;18.80;;;6.80;99.90;;;;;;10404263;28;20045;-85
2022/04/06 01:44:49;;;;;;;33.93;19.17;;;6.80;99.90;;;;;;10388510;28;20441;-80
2022/04/06 01:55:12;;;;;;;34.47;20.53;;;6.90;99.90;;;;;;10407624;28;20033;-80
2022/04/06 02:00:15;;;;;;;30.40;19.20;;;6.80;99.90;;;;;;10412478;28;20124;-81
2022/04/06 02:05:17;;;;;;;33.90;19.77;;;6.80;99.90;;;;;;10395936;28;20526;-81
2022/04/06 02:10:19;;;;;;;38.63;21.80;;;6.80;99.90;;;;;;10396356;28;20042;-84
2022/04/06 02:15:19;;;;;;;35.40;21.27;;;6.80;99.90;;;;;;10404286;28;20160;-81
2022/04/06 02:20:20;;;;;;;45.03;23.93;;;6.80;99.90;;;;;;10412671;28;20049;-82
2022/04/06 02:25:21;;;;;;;60.07;33.73;;;6.80;99.90;;;;;;10410369;28;20034;-84
2022/04/06 02:30:22;;;;;;;60.03;34.10;;;6.80;99.90;;;;;;10394128;28;20034;-83
2022/04/06 02:35:23;;;;;;;60.57;34.57;;;6.80;99.90;;;;;;10412832;28;20127;-81
2022/04/06 02:40:24;;;;;;;80.73;41.23;;;6.80;99.90;;;;;;10390381;28;20489;-83
2022/04/06 02:45:24;;;;;;;71.03;37.83;;;6.80;99.90;;;;;;10410933;28;20061;-82
2022/04/06 02:50:25;;;;;;;57.63;34.43;;;6.80;99.90;;;;;;10408882;28;20503;-81
2022/04/06 02:55:25;;;;;;;53.33;31.77;;;6.90;99.90;;;;;;10411476;28;20476;-86
2022/04/06 03:00:32;;;;;;;48.47;29.77;;;6.80;99.90;;;;;;10410845;28;20041;-81
2022/04/06 03:05:33;;;;;;;43.33;24.90;;;6.90;99.90;;;;;;10400625;28;20021;-81
2022/04/06 03:10:34;;;;;;;40.40;22.20;;;6.90;99.90;;;;;;10405963;28;20068;-81
2022/04/06 03:15:34;;;;;;;42.83;24.57;;;6.90;99.90;;;;;;10400020;28;20028;-83
2022/04/06 03:20:35;;;;;;;39.63;25.07;;;7.00;99.90;;;;;;10387214;28;20040;-82
2022/04/06 03:25:36;;;;;;;38.97;23.80;;;6.90;99.90;;;;;;10408444;28;20385;-81
2022/04/06 03:30:37;;;;;;;39.37;23.07;;;7.00;99.90;;;;;;10401704;28;20029;-82
2022/04/06 03:35:37;;;;;;;39.77;23.90;;;7.00;99.90;;;;;;10405844;28;20061;-83
2022/04/06 03:40:38;;;;;;;39.17;22.80;;;7.00;99.90;;;;;;10405674;28;20048;-85
2022/04/06 03:45:39;;;;;;;38.03;20.43;;;7.10;99.90;;;;;;10391298;28;20036;-81
2022/04/06 03:50:39;;;;;;;42.43;26.53;;;7.10;99.90;;;;;;10395377;28;20436;-83
2022/04/06 03:55:40;;;;;;;48.37;30.03;;;7.10;99.90;;;;;;10403003;28;20116;-82
2022/04/06 04:00:41;;;;;;;48.60;30.47;;;7.10;99.90;;;;;;10398842;28;20557;-83
2022/04/06 04:05:42;;;;;;;38.47;24.67;;;7.10;99.90;;;;;;10387921;28;20033;-83
2022/04/06 04:10:43;;;;;;;44.40;26.57;;;7.10;99.90;;;;;;10406657;28;20382;-81
2022/04/06 04:15:43;;;;;;;46.73;27.57;;;7.00;99.90;;;;;;10394328;28;20029;-82
2022/04/06 04:20:45;;;;;;;45.10;27.23;;;7.10;99.90;;;;;;10400626;28;20033;-82
2022/04/06 04:25:46;;;;;;;42.30;26.70;;;7.10;99.90;;;;;;10379305;28;20026;-82
2022/04/06 04:30:46;;;;;;;44.43;26.63;;;7.10;99.90;;;;;;10376548;28;20026;-81
2022/04/06 04:35:47;;;;;;;47.57;28.87;;;7.00;99.90;;;;;;10404157;28;20185;-81
2022/04/06 04:40:48;;;;;;;48.73;27.93;;;7.00;99.90;;;;;;10407941;28;20473;-84
2022/04/06 04:45:49;;;;;;;47.77;27.60;;;7.00;99.90;;;;;;10402177;28;20035;-82
2022/04/06 04:50:49;;;;;;;48.23;29.07;;;7.10;99.90;;;;;;10379936;28;20040;-80
2022/04/06 04:55:50;;;;;;;48.17;28.07;;;7.20;99.90;;;;;;10404271;28;20412;-83
2022/04/06 05:00:51;;;;;;;42.17;27.37;;;7.20;99.90;;;;;;10407339;28;20041;-83
2022/04/06 05:05:53;;;;;;;45.60;25.03;;;7.30;99.90;;;;;;10406494;28;20104;-83
2022/04/06 05:10:54;;;;;;;42.80;23.77;;;7.30;99.90;;;;;;10407997;28;20022;-83
2022/04/06 05:15:55;;;;;;;51.83;29.73;;;7.40;99.90;;;;;;10372508;28;20049;-80
2022/04/06 05:20:57;;;;;;;47.90;31.47;;;7.50;99.90;;;;;;10377482;28;20099;-82
2022/04/06 05:25:57;;;;;;;54.20;33.20;;;7.60;99.90;;;;;;10415914;28;20370;-82
2022/04/06 05:30:58;;;;;;;62.57;31.63;;;7.60;99.90;;;;;;10415311;28;20025;-81
2022/04/06 05:35:58;;;;;;;65.50;31.47;;;7.80;99.90;;;;;;10414784;28;20054;-83
2022/04/06 05:40:59;;;;;;;27.63;18.13;;;7.80;99.90;;;;;;10415298;28;20033;-81
2022/04/06 05:46:00;;;;;;;30.83;18.63;;;7.80;99.90;;;;;;10392058;28;20034;-81
2022/04/06 05:51:01;;;;;;;29.23;18.00;;;7.80;99.90;;;;;;10400222;28;20625;-82
2022/04/06 05:56:02;;;;;;;32.50;18.87;;;7.80;99.90;;;;;;10413046;28;20026;-83
2022/04/06 06:01:02;;;;;;;33.20;18.97;;;8.00;99.90;;;;;;10388181;28;20567;-82
2022/04/06 06:06:03;;;;;;;25.00;15.80;;;8.10;99.90;;;;;;10395022;28;20086;-81
2022/04/06 06:11:04;;;;;;;32.27;18.00;;;8.20;99.90;;;;;;10413458;28;20045;-79
2022/04/06 06:16:05;;;;;;;25.43;16.33;;;8.40;99.90;;;;;;10413654;28;20036;-81
2022/04/06 06:21:06;;;;;;;27.57;17.87;;;8.50;99.90;;;;;;10413419;28;20371;-81
2022/04/06 06:26:06;;;;;;;25.23;15.70;;;8.60;99.90;;;;;;10403186;28;20033;-82
2022/04/06 06:31:07;;;;;;;23.63;15.37;;;8.60;99.90;;;;;;10409821;28;20033;-81
2022/04/06 06:36:08;;;;;;;23.33;14.23;;;8.60;99.90;;;;;;10405641;23;20140;-82
2022/04/06 06:41:08;;;;;;;23.43;14.27;;;8.70;99.90;;;;;;10372024;28;20121;-83
2022/04/06 06:46:09;;;;;;;56.17;33.27;;;8.80;99.90;;;;;;10370997;28;20041;-85
2022/04/06 06:51:10;;;;;;;28.07;16.30;;;8.90;99.90;;;;;;10371059;28;20116;-83
2022/04/06 06:56:13;;;;;;;41.80;23.33;;;8.90;99.90;;;;;;10370765;28;20489;-83
2022/04/06 07:01:14;;;;;;;28.07;17.50;;;9.00;99.90;;;;;;10370868;28;20061;-84
2022/04/06 07:06:16;;;;;;;27.23;15.87;;;9.20;99.90;;;;;;10370292;28;20425;-82
2022/04/06 07:11:17;;;;;;;26.20;16.10;;;9.40;99.90;;;;;;10371199;28;20026;-82
2022/04/06 07:16:19;;;;;;;31.58;18.90;;;9.60;99.90;;;;;;10369860;28;20041;-82
2022/04/06 07:21:20;;;;;;;42.17;21.67;;;9.70;99.90;;;;;;10351711;28;20053;-82
2022/04/06 07:26:20;;;;;;;42.37;23.70;;;9.80;99.90;;;;;;10369569;28;20119;-83
2022/04/06 07:31:21;;;;;;;28.23;16.92;;;9.90;99.90;;;;;;10368940;28;20110;-83
2022/04/06 07:36:22;;;;;;;34.60;20.63;;;9.80;99.90;;;;;;10409443;28;20085;-83
2022/04/06 07:41:25;;;;;;;40.67;22.10;;;9.70;99.90;;;;;;10388726;28;20415;-82
2022/04/06 07:46:26;;;;;;;59.13;37.00;;;9.90;99.90;;;;;;10388555;28;20030;-83
2022/04/06 07:51:26;;;;;;;27.60;16.52;;;10.10;99.90;;;;;;10377797;28;20125;-82
2022/04/06 07:56:27;;;;;;;39.03;20.02;;;10.30;99.90;;;;;;10380384;28;20029;-81
2022/04/06 08:01:28;;;;;;;23.88;15.35;;;10.30;99.90;;;;;;10407226;28;20069;-83
2022/04/06 08:06:29;;;;;;;33.22;18.85;;;10.30;99.90;;;;;;10382386;28;20066;-83
2022/04/06 08:11:30;;;;;;;26.05;15.93;;;10.30;99.90;;;;;;10380034;28;20026;-83
2022/04/06 08:16:30;;;;;;;26.50;16.95;;;10.20;99.90;;;;;;10405413;28;20026;-81
2022/04/06 08:21:31;;;;;;;28.55;16.48;;;10.20;99.90;;;;;;10403843;28;20045;-81
2022/04/06 08:26:31;;;;;;;28.02;16.65;;;10.20;99.90;;;;;;10401157;28;20370;-81
2022/04/06 08:31:35;;;;;;;31.00;17.50;;;10.20;99.90;;;;;;10386108;28;20030;-83
2022/04/06 08:36:36;;;;;;;26.27;15.15;;;10.30;99.90;;;;;;10379097;28;20058;-82
2022/04/06 08:41:37;;;;;;;33.15;18.17;;;10.30;99.90;;;;;;10390448;28;20045;-82
2022/04/06 08:46:40;;;;;;;25.08;13.60;;;10.20;99.90;;;;;;10381405;28;20026;-82
2022/04/06 08:51:41;;;;;;;21.35;13.15;;;10.60;99.90;;;;;;10409000;28;20079;-82
2022/04/06 08:56:43;;;;;;;24.05;13.98;;;10.90;99.90;;;;;;10407523;28;20056;-82
2022/04/06 09:01:43;;;;;;;27.50;15.70;;;10.80;99.90;;;;;;10404762;28;20045;-83
2022/04/06 09:06:44;;;;;;;22.63;14.13;;;10.70;99.90;;;;;;10408526;28;20029;-81
2022/04/06 09:11:45;;;;;;;25.52;14.80;;;10.70;99.90;;;;;;10407701;28;20032;-82
2022/04/06 09:16:45;;;;;;;30.77;19.08;;;10.60;99.90;;;;;;10392849;28;20124;-83
2022/04/06 09:21:49;;;;;;;20.70;12.32;;;10.50;99.90;;;;;;10407781;28;20033;-81
2022/04/06 09:27:00;;;;;;;22.70;14.18;;;10.50;99.90;;;;;;10406435;28;20029;-84
2022/04/06 09:32:10;;;;;;;23.85;15.10;;;10.30;99.90;;;;;;10382841;28;20465;-83
2022/04/06 09:37:28;;;;;;;22.80;15.27;;;10.30;99.90;;;;;;10407613;28;20139;-83
2022/04/06 09:42:29;;;;;;;27.50;17.08;;;10.30;99.90;;;;;;10407461;28;20025;-82
2022/04/06 09:47:39;;;;;;;25.88;15.88;;;10.30;99.90;;;;;;10406171;28;20038;-82
2022/04/06 09:52:40;;;;;;;23.98;15.50;;;10.30;99.90;;;;;;10407596;28;20381;-83
2022/04/06 09:57:49;;;;;;;24.38;17.38;;;10.50;99.90;;;;;;10405239;28;20367;-83
2022/04/06 10:03:03;;;;;;;27.02;18.27;;;10.50;99.90;;;;;;10387512;28;20033;-83
2022/04/06 10:08:06;;;;;;;19.02;13.07;;;10.60;99.90;;;;;;10411456;28;20486;-83
2022/04/06 10:13:08;;;;;;;22.92;14.25;;;10.60;99.90;;;;;;10406574;28;20513;-82
2022/04/06 10:18:08;;;;;;;27.05;13.73;;;10.50;99.90;;;;;;10413325;28;20072;-85
2022/04/06 10:23:34;;;;;;;23.35;13.52;;;10.40;99.90;;;;;;10413176;28;20107;-83
2022/04/06 10:28:34;;;;;;;25.70;14.35;;;10.30;99.90;;;;;;10391624;28;20425;-81
2022/04/06 10:33:36;;;;;;;27.70;15.98;;;10.30;99.90;;;;;;10408597;28;20088;-82
2022/04/06 10:38:37;;;;;;;22.45;13.98;;;10.30;99.90;;;;;;10413467;28;20028;-83
2022/04/06 10:43:39;;;;;;;22.77;13.55;;;10.60;99.90;;;;;;10382867;28;20022;-82
2022/04/06 10:49:15;;;;;;;25.20;13.75;;;10.80;99.90;;;;;;10382034;28;20018;-83
2022/04/06 10:54:15;;;;;;;26.40;13.95;;;11.00;99.90;;;;;;10371222;28;20030;-84
2022/04/06 10:59:17;;;;;;;20.02;11.75;;;11.30;99.90;;;;;;10399636;28;20025;-83
2022/04/06 11:04:20;;;;;;;23.80;13.50;;;11.50;99.90;;;;;;10392549;28;20691;-83
2022/04/06 11:14:59;;;;;;;17.92;11.30;;;11.70;99.90;;;;;;10406511;28;20103;-83
2022/04/06 11:20:07;;;;;;;27.70;15.73;;;11.70;99.90;;;;;;10411121;28;20049;-82
2022/04/06 11:25:20;;;;;;;20.10;12.45;;;12.10;99.90;;;;;;10373373;28;20048;-83
2022/04/06 11:30:22;;;;;;;27.13;14.20;;;12.50;99.90;;;;;;10391389;28;20083;-85
2022/04/06 11:35:28;;;;;;;21.85;12.10;;;12.60;99.90;;;;;;10408990;28;20061;-84
2022/04/06 11:40:29;;;;;;;15.02;9.60;;;12.60;99.90;;;;;;10410732;28;20539;-83
2022/04/06 11:45:33;;;;;;;13.98;9.30;;;12.40;99.90;;;;;;10410648;28;20022;-83
2022/04/06 11:50:36;;;;;;;15.95;10.35;;;12.30;99.90;;;;;;10409933;28;20079;-82
2022/04/06 11:55:50;;;;;;;26.10;13.75;;;12.40;99.90;;;;;;10410913;28;20052;-82
2022/04/06 12:01:00;;;;;;;14.47;9.10;;;12.50;99.90;;;;;;10403807;28;20059;-84
2022/04/06 12:06:03;;;;;;;13.60;9.13;;;12.50;99.90;;;;;;10392460;28;20025;-81
2022/04/06 12:11:04;;;;;;;17.02;10.43;;;12.60;99.90;;;;;;10407729;28;20029;-84
2022/04/06 12:16:05;;;;;;;14.98;9.90;;;12.80;99.90;;;;;;10391670;28;20025;-83
2022/04/06 12:21:28;;;;;;;15.45;8.80;;;13.00;99.90;;;;;;10403853;28;20084;-83
2022/04/06 12:26:54;;;;;;;16.20;7.90;;;13.00;99.90;;;;;;10403653;28;20036;-82
2022/04/06 12:31:54;;;;;;;11.13;8.07;;;13.00;99.90;;;;;;10398435;28;20025;-83
2022/04/06 12:36:55;;;;;;;25.45;14.20;;;12.70;99.90;;;;;;10409304;28;20128;-83
2022/04/06 12:41:59;;;;;;;14.82;8.57;;;12.60;99.90;;;;;;10406907;28;20401;-82
2022/04/06 12:47:01;;;;;;;15.63;8.52;;;12.50;99.90;;;;;;10407978;28;20412;-83
2022/04/06 12:52:15;;;;;;;14.02;8.50;;;12.40;99.90;;;;;;10408436;28;20025;-83
2022/04/06 12:57:28;;;;;;;16.85;10.18;;;12.30;99.90;;;;;;10395246;28;20104;-84
2022/04/06 13:02:30;;;;;;;20.95;11.60;;;12.30;99.90;;;;;;10400633;28;20100;-82
2022/04/06 13:07:31;;;;;;;21.27;13.15;;;12.50;99.90;;;;;;10400584;28;20034;-84
2022/04/06 13:12:33;;;;;;;16.58;10.95;;;12.80;99.90;;;;;;10373762;28;20032;-84
2022/04/06 13:17:35;;;;;;;13.85;9.18;;;12.90;99.90;;;;;;10402865;28;20032;-83
2022/04/06 13:22:37;;;;;;;13.98;8.25;;;13.00;99.90;;;;;;10375797;28;20034;-82
2022/04/06 13:27:39;;;;;;;14.90;9.57;;;13.10;99.90;;;;;;10368617;28;20466;-83
2022/04/06 13:32:44;;;;;;;13.45;8.85;;;13.30;99.90;;;;;;10403418;28;20030;-85
2022/04/06 13:37:44;;;;;;;15.90;9.17;;;13.30;99.90;;;;;;10406331;28;20057;-82
2022/04/06 13:42:45;;;;;;;14.18;8.82;;;13.40;99.90;;;;;;10413193;28;20267;-83
2022/04/06 13:47:46;;;;;;;18.70;11.82;;;13.40;99.90;;;;;;10414941;28;20026;-83
2022/04/06 13:52:46;;;;;;;20.67;10.50;;;13.40;99.90;;;;;;10413957;28;20571;-83
2022/04/06 13:57:50;;;;;;;20.52;8.68;;;13.70;99.90;;;;;;10414679;28;20090;-84
2022/04/06 14:02:51;;;;;;;19.13;9.13;;;13.70;99.90;;;;;;10409030;28;20120;-87
2022/04/06 14:07:51;;;;;;;47.42;19.90;;;13.50;99.90;;;;;;10392420;28;20022;-83
2022/04/06 14:12:52;;;;;;;17.90;9.32;;;13.50;99.90;;;;;;10383888;28;20041;-84
2022/04/06 14:17:53;;;;;;;14.57;7.28;;;13.40;99.90;;;;;;10414158;28;20033;-83
2022/04/06 14:22:53;;;;;;;11.95;5.80;;;14.00;99.90;;;;;;10406096;28;20037;-83
2022/04/06 14:27:54;;;;;;;23.48;10.43;;;14.30;99.90;;;;;;10391385;28;20110;-84
2022/04/06 14:32:55;;;;;;;11.75;5.30;;;14.00;99.90;;;;;;10390896;28;20032;-84
2022/04/06 14:37:55;;;;;;;12.27;5.47;;;14.00;99.90;;;;;;10411183;28;20057;-82
2022/04/06 14:42:56;;;;;;;10.70;5.10;;;13.90;99.90;;;;;;10397956;28;20030;-83
2022/04/06 14:47:57;;;;;;;8.57;4.28;;;13.90;99.90;;;;;;10389756;28;20033;-85
2022/04/06 14:52:58;;;;;;;30.75;13.35;;;13.80;99.90;;;;;;10407992;28;20049;-84
2022/04/06 14:57:58;;;;;;;9.35;5.13;;;13.80;99.90;;;;;;10388732;28;20034;-82
2022/04/06 15:03:02;;;;;;;5.30;3.60;;;13.90;99.90;;;;;;10387764;28;20021;-84
2022/04/06 15:08:04;;;;;;;30.30;14.55;;;13.90;99.90;;;;;;10407394;28;20057;-84
2022/04/06 15:13:05;;;;;;;14.82;8.13;;;14.30;99.90;;;;;;10403913;28;20036;-83
2022/04/06 15:18:06;;;;;;;6.65;3.45;;;14.50;99.90;;;;;;10405070;28;20382;-83
2022/04/06 15:23:07;;;;;;;4.68;3.08;;;14.40;98.40;;;;;;10405300;28;20083;-82
2022/04/06 15:28:08;;;;;;;5.00;3.42;;;14.60;99.90;;;;;;10376076;28;20439;-83
2022/04/06 15:33:11;;;;;;;6.80;4.28;;;14.70;99.90;;;;;;10389255;28;20041;-84
2022/04/06 15:38:11;;;;;;;15.63;8.10;;;14.60;98.10;;;;;;10368911;28;20125;-82
2022/04/06 15:43:12;;;;;;;8.48;5.40;;;14.70;99.90;;;;;;10386921;28;20765;-82
2022/04/06 15:48:13;;;;;;;23.13;12.60;;;14.90;99.90;;;;;;10392803;28;20041;-83
2022/04/06 15:53:13;;;;;;;6.93;4.97;;;14.80;99.90;;;;;;10397817;28;20044;-82
2022/04/06 15:58:16;;;;;;;7.28;5.85;;;14.50;96.90;;;;;;10378802;28;20076;-82
2022/04/06 16:03:17;;;;;;;8.25;5.80;;;14.40;99.90;;;;;;10399046;28;20037;-81
2022/04/06 16:08:19;;;;;;;9.80;6.65;;;14.00;99.90;;;;;;10405510;28;20033;-83
2022/04/06 16:13:20;;;;;;;10.93;7.93;;;13.80;99.90;;;;;;10404832;28;20028;-83
2022/04/06 16:18:20;;;;;;;10.27;5.53;;;13.70;99.90;;;;;;10401799;28;20043;-82
2022/04/06 16:23:21;;;;;;;10.40;5.93;;;13.60;99.90;;;;;;10402703;28;20430;-83
2022/04/06 16:28:22;;;;;;;18.35;10.25;;;13.50;99.90;;;;;;10399387;28;20022;-83
2022/04/06 16:33:22;;;;;;;36.88;20.70;;;13.40;99.90;;;;;;10404409;28;20033;-83
2022/04/06 16:38:23;;;;;;;34.50;19.63;;;13.30;99.90;;;;;;10406687;28;20192;-83
2022/04/06 16:43:24;;;;;;;141.48;65.03;;;13.10;99.90;;;;;;10407680;28;20037;-84
2022/04/06 16:48:25;;;;;;;148.23;63.58;;;13.10;99.90;;;;;;10403362;28;20032;-83
2022/04/06 16:53:25;;;;;;;169.13;72.95;;;13.10;99.90;;;;;;10396744;28;20038;-82
2022/04/06 16:58:26;;;;;;;197.63;94.40;;;13.10;99.90;;;;;;10385318;28;20083;-82
2022/04/06 17:03:27;;;;;;;186.18;82.15;;;13.00;99.90;;;;;;10401607;28;20026;-85
2022/04/06 17:08:27;;;;;;;150.77;65.43;;;13.00;99.90;;;;;;10408035;28;20041;-84
2022/04/06 17:13:28;;;;;;;149.10;57.22;;;12.90;99.90;;;;;;10402091;28;20033;-85
2022/04/06 17:18:28;;;;;;;163.10;61.83;;;12.90;99.90;;;;;;10403309;28;20508;-86
2022/04/06 17:23:29;;;;;;;87.22;43.80;;;12.80;99.90;;;;;;10366843;28;20088;-85
2022/04/06 17:28:32;;;;;;;91.60;39.22;;;12.70;99.90;;;;;;10396998;23;20058;-85
2022/04/06 17:33:33;;;;;;;113.15;50.05;;;12.60;99.90;;;;;;10369905;28;20018;-84
2022/04/06 17:38:34;;;;;;;142.32;69.32;;;12.50;99.90;;;;;;10407267;28;20091;-84
2022/04/06 17:43:36;;;;;;;138.30;58.70;;;12.40;99.90;;;;;;10409116;28;20087;-82
2022/04/06 17:48:38;;;;;;;254.32;110.80;;;12.20;99.90;;;;;;10397964;28;20069;-83
2022/04/06 17:53:39;;;;;;;394.55;162.98;;;12.10;99.90;;;;;;10395694;28;20083;-82
2022/04/06 17:58:41;;;;;;;361.98;138.23;;;12.00;99.90;;;;;;10413602;28;20045;-84
2022/04/06 18:03:41;;;;;;;450.08;174.27;;;12.00;99.90;;;;;;10409235;28;20488;-83
2022/04/06 18:08:42;;;;;;;369.88;138.30;;;12.00;99.90;;;;;;10406237;28;20033;-82
2022/04/06 18:13:44;;;;;;;798.63;345.20;;;11.90;99.90;;;;;;10395544;28;20037;-85
2022/04/06 18:18:47;;;;;;;962.08;409.40;;;11.90;99.90;;;;;;10404648;28;20037;-85
2022/04/06 18:23:48;;;;;;;344.42;116.05;;;11.80;99.90;;;;;;10392688;28;20037;-85
2022/04/06 18:28:49;;;;;;;221.45;73.50;;;11.70;99.90;;;;;;10409491;28;20050;-85
2022/04/06 18:33:51;;;;;;;434.15;177.18;;;11.70;99.90;;;;;;10407264;28;20366;-85
2022/04/06 18:38:52;;;;;;;631.85;258.33;;;11.70;99.90;;;;;;10393990;28;20691;-85
2022/04/06 18:43:53;;;;;;;362.83;110.85;;;11.60;99.90;;;;;;10404556;28;20079;-83
2022/04/06 18:48:54;;;;;;;271.52;87.32;;;11.60;99.90;;;;;;10410025;28;20025;-83
2022/04/06 18:53:54;;;;;;;351.20;151.18;;;11.60;99.90;;;;;;10402121;28;20068;-84
2022/04/06 18:58:55;;;;;;;357.90;147.50;;;11.60;99.90;;;;;;10369291;28;20133;-84
2022/04/06 19:03:56;;;;;;;326.75;109.63;;;11.60;99.90;;;;;;10394595;28;20382;-86
2022/04/06 19:08:56;;;;;;;153.38;55.25;;;11.60;99.90;;;;;;10408969;28;20139;-83
2022/04/06 19:13:57;;;;;;;152.68;54.72;;;11.50;99.90;;;;;;10384470;28;20228;-85
2022/04/06 19:18:57;;;;;;;197.60;87.90;;;11.50;99.90;;;;;;10405663;28;20094;-86
2022/04/06 19:23:58;;;;;;;221.82;110.75;;;11.50;99.90;;;;;;10409488;28;20596;-85
2022/04/06 19:28:59;;;;;;;234.73;97.25;;;11.50;99.90;;;;;;10408095;28;20060;-84
2022/04/06 19:34:00;;;;;;;107.35;41.58;;;11.50;99.90;;;;;;10401019;28;20032;-84
2022/04/06 19:39:00;;;;;;;76.45;33.22;;;11.50;99.90;;;;;;10390068;28;20472;-83
2022/04/06 19:44:03;;;;;;;113.53;62.35;;;11.40;99.90;;;;;;10391019;28;20022;-85
2022/04/06 19:49:04;;;;;;;106.07;59.38;;;11.30;99.90;;;;;;10383526;28;20032;-83
2022/04/06 19:54:05;;;;;;;161.10;80.07;;;11.20;99.90;;;;;;10391362;28;20060;-85
2022/04/06 19:59:08;;;;;;;97.03;40.85;;;11.20;99.90;;;;;;10397471;28;20121;-84
2022/04/06 20:04:08;;;;;;;91.47;39.75;;;11.20;99.90;;;;;;10386463;28;20034;-84
2022/04/06 20:09:10;;;;;;;49.75;24.98;;;11.20;99.90;;;;;;10365752;28;20076;-85
2022/04/06 20:14:10;;;;;;;34.95;21.02;;;11.30;99.90;;;;;;10400076;28;20112;-86
2022/04/06 20:19:11;;;;;;;46.28;28.05;;;11.20;99.90;;;;;;10406508;28;20041;-86
2022/04/06 20:24:12;;;;;;;58.92;29.58;;;11.30;99.90;;;;;;10395631;28;20108;-85
2022/04/06 20:29:12;;;;;;;59.72;30.20;;;11.30;99.90;;;;;;10406669;28;20735;-85
2022/04/06 20:34:13;;;;;;;30.45;16.52;;;11.30;99.90;;;;;;10400830;28;20026;-83
2022/04/06 20:39:14;;;;;;;27.88;15.05;;;11.40;99.90;;;;;;10407778;28;20026;-84
2022/04/06 20:44:16;;;;;;;20.73;13.48;;;11.30;99.90;;;;;;10394193;28;20042;-85
2022/04/06 20:49:18;;;;;;;30.48;17.25;;;11.30;99.90;;;;;;10368633;28;20746;-84
2022/04/06 20:54:18;;;;;;;29.13;15.00;;;11.20;99.90;;;;;;10369399;28;20037;-85
2022/04/06 20:59:19;;;;;;;29.73;15.93;;;11.20;99.90;;;;;;10365068;28;20053;-85
2022/04/06 21:04:21;;;;;;;22.75;12.20;;;11.20;99.90;;;;;;10400459;28;20079;-84
2022/04/06 21:09:22;;;;;;;36.80;29.60;;;11.10;99.90;;;;;;10387512;28;20025;-84
2022/04/06 21:14:22;;;;;;;35.65;27.13;;;11.10;99.90;;;;;;10404061;28;20025;-85
2022/04/06 21:19:24;;;;;;;35.90;28.42;;;11.00;99.90;;;;;;10402132;28;20033;-85
2022/04/06 21:24:24;;;;;;;27.08;19.83;;;10.90;99.90;;;;;;10406243;28;20034;-85
2022/04/06 21:29:25;;;;;;;28.88;16.73;;;10.90;99.90;;;;;;10401938;28;20057;-84
2022/04/06 21:34:26;;;;;;;26.90;15.00;;;10.80;99.90;;;;;;10402544;28;20431;-84
2022/04/06 21:39:27;;;;;;;27.38;15.35;;;10.80;99.90;;;;;;10404166;28;20087;-83
2022/04/06 21:44:28;;;;;;;27.98;15.93;;;10.70;99.90;;;;;;10404226;28;20037;-84
2022/04/06 21:49:29;;;;;;;28.10;16.02;;;10.50;99.90;;;;;;10403304;28;20041;-83
2022/04/06 21:54:29;;;;;;;29.00;16.85;;;10.40;99.90;;;;;;10402094;28;20048;-83
2022/04/06 21:59:30;;;;;;;27.92;16.35;;;10.30;99.90;;;;;;10399095;28;20045;-84
2022/04/06 22:04:30;;;;;;;40.67;24.48;;;10.20;99.90;;;;;;10412013;28;20099;-85
2022/04/06 22:09:31;;;;;;;41.17;22.60;;;9.90;99.90;;;;;;10413331;28;20029;-85
2022/04/06 22:14:35;;;;;;;41.63;22.30;;;9.80;99.90;;;;;;10398161;28;20029;-85
2022/04/06 22:19:35;;;;;;;130.17;65.37;;;9.50;99.90;;;;;;10411125;28;20037;-84
2022/04/06 22:24:36;;;;;;;106.87;56.53;;;9.40;99.90;;;;;;10412751;28;20450;-86
2022/04/06 22:29:36;;;;;;;96.57;53.77;;;9.30;99.90;;;;;;10397272;28;20053;-86
2022/04/06 22:34:37;;;;;;;79.10;43.40;;;9.30;99.90;;;;;;10407075;28;20037;-85
2022/04/06 22:39:37;;;;;;;70.87;37.73;;;9.10;99.90;;;;;;10401569;23;20062;-84
2022/04/06 22:44:38;;;;;;;60.67;32.17;;;9.10;99.90;;;;;;10313645;28;20521;-85
2022/04/06 22:49:39;;;;;;;56.07;29.93;;;9.00;99.90;;;;;;10330520;28;20049;-86
2022/04/06 22:54:39;;;;;;;54.93;30.70;;;8.90;99.90;;;;;;10313800;28;20121;-86
2022/04/06 22:59:40;;;;;;;60.97;37.50;;;8.90;99.90;;;;;;10331045;28;20070;-85
2022/04/06 23:04:40;;;;;;;54.60;31.03;;;8.90;99.90;;;;;;10329424;28;20030;-84
2022/04/06 23:09:41;;;;;;;69.50;40.87;;;9.00;99.90;;;;;;10329806;28;20034;-85
2022/04/06 23:14:42;;;;;;;66.37;37.63;;;9.10;99.90;;;;;;10312066;28;20030;-85
2022/04/06 23:19:42;;;;;;;62.93;35.00;;;9.20;99.90;;;;;;10328851;28;20113;-85
2022/04/06 23:24:43;;;;;;;65.13;36.47;;;9.30;99.90;;;;;;10330682;28;20432;-84
2022/04/06 23:29:43;;;;;;;67.30;37.77;;;9.40;99.90;;;;;;10329286;28;20030;-87
2022/04/06 23:34:44;;;;;;;64.10;37.27;;;9.40;99.90;;;;;;10355892;28;20030;-84
2022/04/06 23:39:45;;;;;;;71.00;41.27;;;9.20;99.90;;;;;;10369493;28;20521;-85
2022/04/06 23:44:47;;;;;;;75.50;45.93;;;9.10;99.90;;;;;;10366557;28;20054;-86
2022/04/06 23:49:48;;;;;;;80.57;47.03;;;9.00;99.90;;;;;;10349584;28;20033;-85
2022/04/06 23:54:48;;;;;;;85.87;47.33;;;9.00;99.90;;;;;;10369176;28;20038;-85
2022/04/06 23:59:49;;;;;;;79.83;45.53;;;8.90;99.90;;;;;;10362994;28;20060;-86
